Time;durP1;ratioP1;P1;durP2;ratioP2;P2;SDS_P1;SDS_P2;PMS_P1;PMS_P2;Temp;Humidity;BMP_temperature;BMP_pressure;BME280_temperature;BME280_humidity;BME280_pressure;Samples;Min_cycle;Max_cycle;Signal;HPM_P1;HPM_P2
2023/08/11 00:00:37;;;;;;;5.10;1.77;;;;;;;19.51;48.17;100061.78;4478146;32;33968;-80
2023/08/11 00:03:05;;;;;;;3.03;1.85;;;;;;;19.51;48.11;100057.19;4475736;32;32711;-80
2023/08/11 00:05:37;;;;;;;2.42;1.17;;;;;;;19.47;48.24;100060.41;4481270;32;33348;-76
2023/08/11 00:08:08;;;;;;;6.12;1.75;;;;;;;19.48;48.24;100056.69;4480194;31;33828;-76
2023/08/11 00:10:36;;;;;;;1.12;0.57;;;;;;;19.47;48.17;100050.41;4479030;32;34701;-75
2023/08/11 00:13:04;;;;;;;2.03;1.48;;;;;;;19.46;48.18;100051.44;4481531;31;33890;-75
2023/08/11 00:15:34;;;;;;;1.27;0.85;;;;;;;19.45;48.21;100051.56;4478703;32;33977;-77
2023/08/11 00:18:02;;;;;;;3.47;1.45;;;;;;;19.40;48.25;100053.94;4480683;31;33113;-74
2023/08/11 00:20:30;;;;;;;5.22;2.03;;;;;;;19.36;48.32;100061.56;4480052;32;35065;-74
2023/08/11 00:22:58;;;;;;;3.50;1.45;;;;;;;19.34;48.47;100055.44;4480613;32;33711;-75
2023/08/11 00:25:25;;;;;;;5.15;2.15;;;;;;;19.37;48.39;100063.25;4479568;31;33786;-74
2023/08/11 00:27:53;;;;;;;2.37;1.25;;;;;;;19.23;48.64;100062.03;4479946;32;33379;-76
2023/08/11 00:30:20;;;;;;;2.70;1.40;;;;;;;19.24;48.62;100052.88;4471647;32;33652;-75
2023/08/11 00:32:48;;;;;;;3.25;1.65;;;;;;;19.14;48.77;100056.72;4473237;32;35817;-74
2023/08/11 00:35:16;;;;;;;4.05;1.55;;;;;;;19.20;48.76;100054.22;4479860;31;32396;-75
2023/08/11 00:37:44;;;;;;;1.85;1.35;;;;;;;19.22;48.54;100052.16;4480065;32;34338;-75
2023/08/11 00:40:12;;;;;;;4.18;1.75;;;;;;;19.29;48.33;100050.53;4482533;31;33483;-74
2023/08/11 00:42:39;;;;;;;2.80;1.77;;;;;;;19.31;48.43;100053.91;4476995;31;33955;-74
2023/08/11 00:45:08;;;;;;;4.78;1.55;;;;;;;19.40;48.08;100046.66;4479489;32;34002;-74
2023/08/11 00:47:41;;;;;;;3.40;1.80;;;;;;;19.40;48.01;100048.53;4479966;31;34106;-74
2023/08/11 00:50:11;;;;;;;2.10;1.35;;;;;;;19.22;48.41;100046.75;4478008;32;33478;-74
2023/08/11 00:52:39;;;;;;;4.28;1.42;;;;;;;19.32;48.12;100038.47;4479657;31;31943;-77
2023/08/11 00:55:10;;;;;;;2.25;1.42;;;;;;;19.33;48.14;100044.78;4473549;32;34349;-77
2023/08/11 00:57:38;;;;;;;2.72;1.58;;;;;;;19.15;48.57;100044.84;4476872;31;33283;-74
2023/08/11 01:00:13;;;;;;;3.35;1.58;;;;;;;19.08;48.62;100040.06;4479963;32;34364;-73
2023/08/11 01:02:42;;;;;;;;;;;;;;;19.09;48.63;100044.47;4477847;31;34032;-73
2023/08/11 01:05:12;;;;;;;3.72;1.67;;;;;;;19.04;48.79;100043.28;4471357;31;33792;-74
2023/08/11 01:07:45;;;;;;;2.15;1.55;;;;;;;19.00;48.93;100050.03;4450591;32;33247;-75
2023/08/11 01:10:22;;;;;;;2.00;1.20;;;;;;;18.95;49.03;100039.69;4471690;32;33751;-74
2023/08/11 01:13:08;;;;;;;3.78;2.30;;;;;;;18.97;48.94;100039.50;4476976;32;33915;-72
2023/08/11 01:15:36;;;;;;;;;;;;;;;18.80;49.25;100035.84;4453500;32;33378;-72
2023/08/11 01:18:05;;;;;;;4.37;1.80;;;;;;;18.82;49.21;100040.13;4449642;32;33351;-72
2023/08/11 01:20:33;;;;;;;3.40;1.42;;;;;;;18.80;49.32;100035.84;4442815;32;33609;-72
2023/08/11 01:23:02;;;;;;;3.17;1.67;;;;;;;18.65;49.73;100034.72;4447012;32;33905;-73
2023/08/11 01:25:32;;;;;;;5.43;2.25;;;;;;;18.78;49.44;100027.03;4439410;32;34031;-72
2023/08/11 01:28:00;;;;;;;2.30;1.60;;;;;;;18.82;49.36;100023.84;4439471;32;33621;-72
2023/08/11 01:30:29;;;;;;;4.25;1.85;;;;;;;18.74;49.51;100029.19;4444370;32;33955;-72
2023/08/11 01:32:57;;;;;;;2.87;1.67;;;;;;;18.60;49.83;100033.34;4446683;32;35892;-72
2023/08/11 01:35:25;;;;;;;3.55;1.75;;;;;;;18.84;49.37;100042.66;4463292;32;34671;-72
2023/08/11 01:38:10;;;;;;;2.80;1.42;;;;;;;18.87;49.30;100033.34;4459025;32;33942;-72
2023/08/11 01:40:38;;;;;;;2.85;1.45;;;;;;;19.00;49.01;100033.75;4461259;32;34490;-71
2023/08/11 01:43:07;;;;;;;2.87;1.40;;;;;;;19.06;48.97;100035.81;4456076;32;34955;-71
2023/08/11 01:45:35;;;;;;;3.33;1.80;;;;;;;19.06;48.91;100035.81;4433504;32;33355;-71
2023/08/11 01:48:03;;;;;;;2.40;1.27;;;;;;;19.07;48.87;100043.81;4432089;32;33321;-71
2023/08/11 01:50:31;;;;;;;2.42;1.50;;;;;;;19.09;48.88;100033.63;4436297;32;34975;-71
2023/08/11 01:52:59;;;;;;;2.83;1.52;;;;;;;19.18;48.71;100037.25;4440874;32;34964;-71
2023/08/11 01:55:28;;;;;;;2.20;1.42;;;;;;;19.18;48.83;100036.38;4447628;32;33522;-71
2023/08/11 01:57:56;;;;;;;3.10;1.67;;;;;;;19.26;48.55;100036.41;4449469;32;33402;-71
2023/08/11 02:00:28;;;;;;;3.97;1.45;;;;;;;19.31;48.43;100026.78;4446173;32;34395;-71
2023/08/11 02:02:57;;;;;;;2.78;1.35;;;;;;;19.40;48.66;100032.25;4450980;32;35215;-71
2023/08/11 02:05:26;;;;;;;2.92;1.30;;;;;;;19.38;48.69;100040.53;4448612;32;34597;-71
2023/08/11 02:07:55;;;;;;;3.25;1.50;;;;;;;19.45;48.47;100035.28;4449357;32;33218;-71
2023/08/11 02:10:23;;;;;;;2.85;1.48;;;;;;;19.45;48.41;100047.00;4446106;32;35219;-71
2023/08/11 02:12:51;;;;;;;5.68;1.62;;;;;;;19.44;48.41;100052.59;4448981;32;34965;-71
2023/08/11 02:15:19;;;;;;;3.30;1.45;;;;;;;19.45;48.06;100048.88;4452714;32;32461;-71
2023/08/11 02:17:48;;;;;;;3.30;1.60;;;;;;;19.42;48.30;100047.34;4479516;32;33372;-71
2023/08/11 02:20:22;;;;;;;2.12;1.25;;;;;;;19.50;48.08;100049.22;4479731;31;34149;-72
2023/08/11 02:22:52;;;;;;;2.60;1.37;;;;;;;19.53;48.22;100040.75;4480893;31;33880;-72
2023/08/11 02:25:22;;;;;;;2.80;1.35;;;;;;;19.52;48.49;100047.22;4476006;31;34669;-71
2023/08/11 02:27:50;;;;;;;3.75;1.70;;;;;;;19.50;48.21;100046.53;4482024;32;33783;-71
2023/08/11 02:30:18;;;;;;;4.78;1.83;;;;;;;19.39;48.33;100042.25;4479978;32;33565;-72
2023/08/11 02:32:46;;;;;;;3.20;1.67;;;;;;;19.23;48.38;100043.03;4479289;31;34029;-72
2023/08/11 02:35:17;;;;;;;4.30;1.75;;;;;;;19.23;48.44;100043.03;4482225;32;33861;-72
2023/08/11 02:37:45;;;;;;;3.75;1.70;;;;;;;19.09;48.72;100054.47;4483729;31;33200;-72
2023/08/11 02:40:14;;;;;;;2.05;1.42;;;;;;;18.75;49.47;100051.78;4471841;32;33788;-71
2023/08/11 02:42:54;;;;;;;3.42;1.77;;;;;;;18.80;49.39;100049.41;4480443;31;34956;-72
2023/08/11 02:45:23;;;;;;;4.60;2.28;;;;;;;18.53;50.11;100047.69;4480858;32;33549;-72
2023/08/11 02:47:51;;;;;;;3.60;1.77;;;;;;;18.50;50.27;100045.28;4477084;32;34239;-72
2023/08/11 02:50:19;;;;;;;5.07;1.95;;;;;;;18.56;50.08;100050.94;4481614;32;35179;-72
2023/08/11 02:52:47;;;;;;;4.78;2.12;;;;;;;18.74;49.62;100052.75;4479586;32;33613;-72
2023/08/11 02:55:14;;;;;;;5.05;2.60;;;;;;;18.80;49.78;100046.69;4483046;32;35571;-71
2023/08/11 02:57:42;;;;;;;7.97;2.62;;;;;;;18.79;49.38;100051.28;4478475;31;33197;-71
2023/08/11 03:00:13;;;;;;;3.00;1.37;;;;;;;18.75;49.27;100049.06;4482656;32;34567;-71
2023/08/11 03:02:41;;;;;;;2.72;1.15;;;;;;;18.69;49.29;100053.22;4480405;31;34785;-70
2023/08/11 03:05:10;;;;;;;3.72;1.77;;;;;;;18.72;49.36;100052.94;4482821;32;35570;-71
2023/08/11 03:07:40;;;;;;;4.22;1.50;;;;;;;18.81;49.17;100056.53;4479282;32;34433;-70
2023/08/11 03:10:11;;;;;;;3.00;1.90;;;;;;;18.78;49.40;100059.56;4481755;32;33813;-71
2023/08/11 03:12:40;;;;;;;1.83;1.20;;;;;;;18.69;49.50;100064.06;4472021;31;34030;-71
2023/08/11 03:15:08;;;;;;;6.15;1.67;;;;;;;18.55;49.80;100056.50;4482306;32;34698;-71
2023/08/11 03:17:37;;;;;;;2.33;1.55;;;;;;;18.56;49.73;100060.94;4480702;31;34118;-71
2023/08/11 03:20:15;;;;;;;8.48;2.10;;;;;;;18.55;49.79;100064.63;4482309;32;34781;-70
2023/08/11 03:22:44;;;;;;;5.12;1.75;;;;;;;18.50;49.98;100053.44;4482491;32;34021;-71
2023/08/11 03:25:12;;;;;;;2.45;1.40;;;;;;;18.50;49.99;100056.97;4482526;32;33884;-70
2023/08/11 03:27:42;;;;;;;2.05;1.33;;;;;;;18.51;49.99;100063.25;4472844;31;33014;-70
2023/08/11 03:30:12;;;;;;;2.92;1.60;;;;;;;18.56;49.92;100059.06;4481125;31;34574;-70
2023/08/11 03:32:40;;;;;;;5.12;2.08;;;;;;;18.62;49.77;100063.84;4479229;32;33749;-71
2023/08/11 03:35:08;;;;;;;4.07;1.83;;;;;;;18.60;50.00;100073.16;4479640;32;33872;-72
2023/08/11 03:37:37;;;;;;;3.15;1.48;;;;;;;18.47;50.18;100070.00;4470782;32;33187;-72
2023/08/11 03:40:09;;;;;;;2.05;1.40;;;;;;;18.55;50.17;100070.06;4478490;31;34824;-72
2023/08/11 03:42:36;;;;;;;3.80;1.90;;;;;;;18.60;50.09;100068.56;4476193;32;35669;-72
2023/08/11 03:45:04;;;;;;;1.60;1.02;;;;;;;18.68;49.90;100066.91;4483200;32;34394;-72
2023/08/11 03:47:33;;;;;;;3.80;1.60;;;;;;;18.66;49.96;100066.25;4480574;31;32937;-72
2023/08/11 03:50:02;;;;;;;4.35;1.58;;;;;;;18.63;50.11;100070.97;4480339;32;33800;-72
2023/08/11 03:52:29;;;;;;;2.97;1.65;;;;;;;18.60;50.37;100073.16;4476330;32;34107;-72
2023/08/11 03:54:57;;;;;;;3.10;1.25;;;;;;;18.60;50.50;100076.72;4481612;32;33620;-72
2023/08/11 03:57:25;;;;;;;5.60;2.25;;;;;;;18.56;50.54;100074.47;4480617;32;33658;-71
2023/08/11 03:59:53;;;;;;;1.92;1.52;;;;;;;18.49;50.59;100074.28;4482143;32;33921;-72
2023/08/11 04:02:21;;;;;;;3.10;1.37;;;;;;;18.38;50.81;100072.62;4479168;32;35038;-72
2023/08/11 04:04:49;;;;;;;4.30;2.00;;;;;;;18.41;50.86;100074.19;4482596;32;34177;-72
2023/08/11 04:07:17;;;;;;;3.67;1.65;;;;;;;18.46;50.81;100073.69;4482572;32;33026;-72
2023/08/11 04:09:46;;;;;;;5.57;2.00;;;;;;;18.58;50.61;100075.16;4482638;32;33962;-72
2023/08/11 04:12:14;;;;;;;4.43;1.77;;;;;;;18.71;50.63;100081.00;4479119;32;35267;-72
2023/08/11 04:14:41;;;;;;;1.73;1.27;;;;;;;18.87;50.76;100084.87;4481680;32;34135;-72
2023/08/11 04:17:13;;;;;;;3.53;1.75;;;;;;;18.94;50.81;100091.34;4482070;32;34426;-72
2023/08/11 04:19:41;;;;;;;2.95;1.17;;;;;;;19.00;50.71;100096.12;4482695;32;32419;-72
2023/08/11 04:22:09;;;;;;;3.83;1.10;;;;;;;18.55;51.50;100094.44;4481342;32;33701;-72
2023/08/11 04:24:37;;;;;;;6.70;1.90;;;;;;;19.06;50.50;100095.50;4480457;32;33758;-72
2023/08/11 04:27:05;;;;;;;4.15;1.95;;;;;;;19.07;50.65;100105.37;4481682;32;32946;-71
2023/08/11 04:29:33;;;;;;;2.10;1.40;;;;;;;18.95;50.56;100106.62;4472135;32;33578;-71
2023/08/11 04:32:04;;;;;;;3.53;2.17;;;;;;;19.26;49.87;100115.97;4480233;32;34094;-71
2023/08/11 04:34:33;;;;;;;4.90;2.37;;;;;;;19.38;49.34;100107.53;4480077;31;33904;-72
2023/08/11 04:37:04;;;;;;;2.00;1.42;;;;;;;19.53;49.08;100100.47;4480259;32;33388;-71
2023/08/11 04:39:36;;;;;;;2.22;1.52;;;;;;;19.60;49.11;100097.97;4481353;32;34013;-72
2023/08/11 04:42:05;;;;;;;5.35;2.25;;;;;;;19.69;48.97;100099.72;4474790;32;33763;-72
2023/08/11 04:44:33;;;;;;;4.82;2.17;;;;;;;19.87;48.90;100097.75;4485410;32;33901;-71
2023/08/11 04:47:01;;;;;;;5.12;2.20;;;;;;;19.84;48.89;100110.78;4484512;32;33596;-71
2023/08/11 04:49:29;;;;;;;2.60;1.48;;;;;;;19.48;49.96;100111.81;4484451;32;33936;-74
2023/08/11 04:51:57;;;;;;;3.80;1.60;;;;;;;19.75;48.83;100116.22;4484314;32;34931;-71
2023/08/11 04:54:24;;;;;;;3.50;1.95;;;;;;;20.04;48.03;100116.78;4479656;32;34038;-71
2023/08/11 04:56:52;;;;;;;2.78;1.73;;;;;;;20.16;47.74;100127.19;4486051;32;33517;-71
2023/08/11 04:59:20;;;;;;;3.00;1.60;;;;;;;20.33;47.68;100125.31;4487358;32;34020;-71
2023/08/11 05:01:48;;;;;;;5.35;2.00;;;;;;;20.48;47.36;100123.66;4481801;32;33707;-71
2023/08/11 05:04:16;;;;;;;5.87;1.95;;;;;;;21.05;45.86;100127.34;4485540;32;34916;-71
2023/08/11 05:06:44;;;;;;;4.45;2.20;;;;;;;21.90;43.57;100130.31;4485657;32;32210;-71
2023/08/11 05:09:12;;;;;;;4.43;2.08;;;;;;;21.89;43.37;100125.03;4484468;31;33624;-71
2023/08/11 05:11:39;;;;;;;3.40;1.87;;;;;;;21.53;44.05;100137.28;4476613;31;34235;-71
2023/08/11 05:14:07;;;;;;;3.10;2.00;;;;;;;21.24;44.63;100137.00;4485633;32;33849;-72
2023/08/11 05:16:35;;;;;;;4.28;2.58;;;;;;;20.88;45.55;100132.81;4473100;32;33053;-71
2023/08/11 05:19:04;;;;;;;4.00;1.90;;;;;;;20.72;46.13;100142.88;4487247;32;33858;-71
2023/08/11 05:21:32;;;;;;;3.20;1.95;;;;;;;20.74;46.63;100143.53;4482299;32;33813;-78
2023/08/11 05:23:59;;;;;;;4.07;1.55;;;;;;;20.75;46.90;100137.09;4486608;32;34993;-79
2023/08/11 05:26:27;;;;;;;5.00;2.12;;;;;;;20.91;46.75;100142.53;4485338;31;34173;-79
2023/08/11 05:28:55;;;;;;;3.72;1.75;;;;;;;20.98;46.85;100145.41;4485805;31;34619;-74
2023/08/11 05:31:23;;;;;;;4.35;1.85;;;;;;;21.35;46.31;100139.41;4484628;31;35110;-75
2023/08/11 05:33:52;;;;;;;3.37;1.85;;;;;;;21.98;44.93;100145.75;4484181;32;34652;-75
2023/08/11 05:36:20;;;;;;;2.55;1.60;;;;;;;22.05;44.31;100144.88;4475574;32;33328;-75
2023/08/11 05:38:47;;;;;;;4.12;1.92;;;;;;;21.78;44.66;100151.66;4482423;32;33379;-75
2023/08/11 05:41:15;;;;;;;5.25;2.33;;;;;;;21.88;44.12;100143.25;4486033;31;34767;-75
2023/08/11 05:43:42;;;;;;;5.62;2.42;;;;;;;21.58;45.24;100144.94;4486939;32;32664;-75
2023/08/11 05:46:10;;;;;;;6.65;2.25;;;;;;;21.74;44.73;100142.16;4485273;31;31512;-76
2023/08/11 05:48:38;;;;;;;6.72;2.42;;;;;;;21.61;45.24;100142.72;4480493;32;33716;-75
2023/08/11 05:51:06;;;;;;;3.22;2.05;;;;;;;21.71;45.33;100138.94;4464538;32;33518;-76
2023/08/11 05:53:33;;;;;;;4.90;2.33;;;;;;;21.26;47.36;100145.87;4469985;32;35018;-75
2023/08/11 05:56:01;;;;;;;3.40;1.90;;;;;;;21.41;46.68;100146.84;4454498;32;32798;-76
2023/08/11 05:58:29;;;;;;;4.37;2.22;;;;;;;21.63;46.41;100140.62;4476072;32;33472;-76
2023/08/11 06:00:56;;;;;;;4.72;2.25;;;;;;;21.70;46.87;100148.97;4469298;32;34591;-76
2023/08/11 06:03:29;;;;;;;5.80;2.55;;;;;;;21.72;46.31;100151.50;4471525;32;34555;-75
2023/08/11 06:06:01;;;;;;;5.47;1.90;;;;;;;21.67;46.20;100165.69;4467174;32;34220;-71
2023/08/11 06:08:30;;;;;;;6.68;2.37;;;;;;;21.97;46.45;100155.81;4480586;32;33645;-71
2023/08/11 06:10:57;;;;;;;3.80;2.35;;;;;;;22.02;45.93;100155.25;4469326;32;33866;-72
2023/08/11 06:13:25;;;;;;;4.55;2.03;;;;;;;22.01;45.61;100159.03;4475948;32;34558;-71
2023/08/11 06:15:53;;;;;;;4.70;2.00;;;;;;;21.93;46.26;100164.53;4465811;32;34320;-71
2023/08/11 06:18:21;;;;;;;3.33;2.17;;;;;;;21.87;46.46;100172.37;4471217;32;33925;-71
2023/08/11 06:20:48;;;;;;;3.47;1.83;;;;;;;22.01;46.40;100176.22;4467321;32;34049;-71
2023/08/11 06:23:16;;;;;;;7.12;1.92;;;;;;;21.90;47.58;100171.19;4456775;32;33935;-71
2023/08/11 06:25:44;;;;;;;2.87;1.52;;;;;;;21.93;47.71;100167.28;4477540;32;33310;-78
2023/08/11 06:28:12;;;;;;;3.65;1.95;;;;;;;22.29;46.79;100165.72;4479659;32;33652;-70
2023/08/11 06:30:39;;;;;;;5.78;2.15;;;;;;;22.18;47.37;100167.97;4476244;32;32750;-71
2023/08/11 06:33:07;;;;;;;2.35;1.42;;;;;;;22.14;46.50;100170.19;4466910;32;33645;-71
2023/08/11 06:35:35;;;;;;;9.52;2.15;;;;;;;22.37;46.38;100169.41;4481226;32;34145;-71
2023/08/11 06:38:03;;;;;;;4.55;1.83;;;;;;;22.22;46.53;100169.34;4478492;32;34796;-71
2023/08/11 06:40:30;;;;;;;4.15;1.75;;;;;;;22.62;46.31;100165.47;4482463;32;34945;-70
2023/08/11 06:42:58;;;;;;;3.40;1.60;;;;;;;22.58;46.43;100166.88;4474624;32;33658;-71
2023/08/11 06:45:26;;;;;;;3.17;2.08;;;;;;;22.92;45.84;100171.88;4478330;32;33003;-71
2023/08/11 06:47:53;;;;;;;3.45;1.90;;;;;;;22.88;45.02;100180.59;4479553;32;33925;-69
2023/08/11 06:50:21;;;;;;;3.97;1.75;;;;;;;22.94;45.60;100175.28;4480414;31;35203;-69
2023/08/11 06:52:49;;;;;;;4.75;2.25;;;;;;;22.96;45.87;100178.69;4480294;32;33485;-69
2023/08/11 06:55:16;;;;;;;3.15;1.83;;;;;;;23.09;45.97;100185.41;4480088;32;33237;-69
2023/08/11 06:57:44;;;;;;;3.35;1.75;;;;;;;22.96;46.25;100177.84;4482098;32;34564;-69
2023/08/11 07:00:12;;;;;;;2.97;1.92;;;;;;;23.05;46.13;100179.47;4479728;32;33704;-69
2023/08/11 07:02:40;;;;;;;6.30;2.08;;;;;;;23.16;46.71;100183.63;4482216;32;33683;-70
2023/08/11 07:05:08;;;;;;;3.83;2.03;;;;;;;23.43;46.03;100184.88;4480584;32;34632;-69
2023/08/11 07:07:36;;;;;;;5.57;2.28;;;;;;;23.38;45.07;100188.19;4480436;31;33659;-69
2023/08/11 07:10:03;;;;;;;5.15;2.00;;;;;;;23.01;46.20;100187.16;4480547;32;35156;-69
2023/08/11 07:12:31;;;;;;;4.82;2.47;;;;;;;23.44;45.29;100190.16;4477555;31;34034;-69
2023/08/11 07:14:59;;;;;;;4.50;1.83;;;;;;;23.25;46.35;100185.25;4480974;32;34592;-69
2023/08/11 07:17:26;;;;;;;4.20;2.20;;;;;;;23.46;46.09;100185.34;4480573;32;33595;-69
2023/08/11 07:19:54;;;;;;;4.22;1.98;;;;;;;23.61;45.79;100182.63;4483762;32;34126;-69
2023/08/11 07:22:22;;;;;;;4.05;2.15;;;;;;;23.76;45.71;100188.12;4481138;32;34759;-70
2023/08/11 07:24:49;;;;;;;3.55;1.83;;;;;;;23.81;44.66;100191.12;4481365;32;33103;-72
2023/08/11 07:27:17;;;;;;;3.95;2.03;;;;;;;23.64;44.36;100193.19;4479862;32;34660;-71
2023/08/11 07:29:46;;;;;;;2.90;1.77;;;;;;;23.83;44.62;100182.75;4481054;32;34839;-73
2023/08/11 07:32:14;;;;;;;3.08;2.03;;;;;;;23.24;46.88;100189.87;4472343;32;33520;-73
2023/08/11 07:34:41;;;;;;;3.65;1.80;;;;;;;23.58;45.24;100191.19;4481923;32;32969;-73
2023/08/11 07:37:09;;;;;;;4.45;2.40;;;;;;;23.66;45.92;100201.19;4481068;32;34324;-72
2023/08/11 07:39:37;;;;;;;6.55;2.28;;;;;;;23.24;46.59;100191.72;4474977;32;34060;-72
2023/08/11 07:42:05;;;;;;;2.95;1.75;;;;;;;23.37;46.14;100191.94;4478366;32;33868;-73
2023/08/11 07:44:33;;;;;;;6.93;2.22;;;;;;;24.04;44.18;100193.72;4478712;31;34108;-73
2023/08/11 07:47:02;;;;;;;3.72;2.22;;;;;;;24.15;44.41;100195.12;4480293;32;34780;-73
2023/08/11 07:49:30;;;;;;;2.72;1.70;;;;;;;23.63;45.99;100202.41;4478094;32;34712;-73
2023/08/11 07:51:58;;;;;;;7.43;2.75;;;;;;;23.76;45.87;100204.53;4483648;32;33903;-72
2023/08/11 07:54:25;;;;;;;2.85;1.65;;;;;;;24.18;44.98;100203.78;4479160;31;33560;-73
2023/08/11 07:56:53;;;;;;;3.12;1.87;;;;;;;23.99;44.77;100206.28;4478625;31;35291;-74
2023/08/11 07:59:21;;;;;;;3.67;2.00;;;;;;;23.71;45.85;100202.34;4480291;32;34052;-73
2023/08/11 08:01:51;;;;;;;5.43;1.67;;;;;;;24.23;43.05;100210.56;4480377;32;35133;-73
2023/08/11 08:04:20;;;;;;;4.22;1.90;;;;;;;24.18;43.63;100203.78;4479028;32;33096;-75
2023/08/11 08:06:48;;;;;;;4.12;2.05;;;;;;;23.88;45.30;100200.28;4481567;32;32575;-72
2023/08/11 08:09:15;;;;;;;3.03;1.90;;;;;;;23.93;44.84;100203.25;4481508;32;34185;-75
2023/08/11 08:11:45;;;;;;;7.22;2.15;;;;;;;24.11;44.44;100210.25;4479553;32;33958;-75
2023/08/11 08:14:13;;;;;;;3.22;1.77;;;;;;;23.99;45.13;100206.28;4480588;32;34265;-73
2023/08/11 08:16:44;;;;;;;6.25;2.22;;;;;;;24.01;44.82;100207.78;4479607;31;33423;-73
2023/08/11 08:19:18;;;;;;;3.92;2.12;;;;;;;23.99;45.96;100211.75;4472705;32;35251;-72
2023/08/11 08:21:46;;;;;;;3.65;2.10;;;;;;;23.84;45.23;100215.34;4472121;32;34662;-72
2023/08/11 08:24:14;;;;;;;3.87;2.20;;;;;;;23.61;45.83;100211.84;4473037;32;33794;-72
2023/08/11 08:26:43;;;;;;;3.97;1.90;;;;;;;23.40;47.01;100213.44;4474075;32;33605;-72
2023/08/11 08:29:11;;;;;;;3.00;1.83;;;;;;;23.82;46.13;100211.97;4474904;31;33980;-73
2023/08/11 08:31:38;;;;;;;4.85;2.00;;;;;;;23.91;45.68;100210.81;4480352;32;34074;-72
2023/08/11 08:34:06;;;;;;;4.60;2.40;;;;;;;24.15;44.56;100206.91;4481621;32;33255;-71
2023/08/11 08:36:34;;;;;;;4.68;1.90;;;;;;;24.45;45.13;100206.00;4477890;32;33997;-72
2023/08/11 08:39:02;;;;;;;5.25;2.58;;;;;;;24.75;43.88;100198.53;4472552;32;35580;-71
2023/08/11 08:41:32;;;;;;;3.20;1.67;;;;;;;23.91;44.85;100201.75;4427833;32;34353;-75
2023/08/11 08:44:00;;;;;;;5.03;2.12;;;;;;;24.72;43.33;100199.78;4440333;32;32869;-73
2023/08/11 08:46:30;;;;;;;5.28;2.22;;;;;;;24.62;44.36;100205.59;4439537;32;33204;-71
2023/08/11 08:49:26;;;;;;;5.00;2.37;;;;;;;24.89;43.68;100205.84;4443077;32;34670;-70
2023/08/11 08:51:54;;;;;;;3.87;1.95;;;;;;;24.76;43.71;100201.09;4437376;32;34900;-70
2023/08/11 08:54:22;;;;;;;4.15;2.72;;;;;;;24.57;44.30;100205.31;4440794;32;33162;-71
2023/08/11 08:56:51;;;;;;;4.12;2.03;;;;;;;24.89;44.04;100214.03;4431912;32;33516;-69
2023/08/11 08:59:19;;;;;;;5.35;2.28;;;;;;;24.64;44.50;100213.59;4447275;32;33650;-69
2023/08/11 09:01:47;;;;;;;5.90;2.45;;;;;;;24.85;44.73;100208.12;4451475;32;33760;-70
2023/08/11 09:04:15;;;;;;;5.50;2.25;;;;;;;25.08;43.39;100202.41;4439481;32;34216;-71
2023/08/11 09:06:44;;;;;;;9.02;2.12;;;;;;;24.95;43.70;100207.78;4442237;32;33764;-71
2023/08/11 09:09:12;;;;;;;3.53;1.95;;;;;;;25.30;43.20;100199.69;4433741;32;34833;-72
2023/08/11 09:11:41;;;;;;;4.80;3.08;;;;;;;25.18;43.80;100210.31;4455260;32;33613;-72
2023/08/11 09:14:09;;;;;;;11.52;2.60;;;;;;;25.52;42.84;100201.31;4468793;31;34190;-73
2023/08/11 09:16:38;;;;;;;4.95;2.08;;;;;;;24.98;43.47;100201.91;4469692;31;33473;-71
2023/08/11 09:19:08;;;;;;;4.68;2.37;;;;;;;25.26;42.62;100203.84;4467263;31;33446;-72
2023/08/11 09:21:36;;;;;;;4.22;2.42;;;;;;;25.54;42.32;100201.94;4476796;32;33409;-73
2023/08/11 09:24:04;;;;;;;3.67;2.15;;;;;;;25.50;42.54;100206.13;4481598;32;32860;-72
2023/08/11 09:26:32;;;;;;;4.90;2.55;;;;;;;25.89;42.58;100206.59;4476091;31;33769;-72
2023/08/11 09:28:59;;;;;;;3.20;1.83;;;;;;;25.69;42.09;100204.56;4479568;32;34997;-72
2023/08/11 09:31:27;;;;;;;2.90;1.83;;;;;;;25.99;41.06;100198.84;4479539;32;33673;-74
2023/08/11 09:33:55;;;;;;;3.30;2.00;;;;;;;25.85;41.73;100208.91;4478453;32;32983;-73
2023/08/11 09:36:22;;;;;;;3.12;1.83;;;;;;;25.85;41.94;100206.16;4482743;32;33548;-74
2023/08/11 09:38:50;;;;;;;3.67;1.98;;;;;;;26.38;39.48;100198.12;4475423;32;33996;-74
2023/08/11 09:41:17;;;;;;;3.65;1.67;;;;;;;26.37;40.32;100190.13;4475924;32;33872;-73
2023/08/11 09:43:47;;;;;;;3.22;1.58;;;;;;;26.42;38.29;100195.81;4477172;32;34695;-74
2023/08/11 09:46:15;;;;;;;3.15;1.95;;;;;;;26.71;38.42;100186.44;4479543;31;34019;-73
2023/08/11 09:48:54;;;;;;;4.30;2.20;;;;;;;26.73;39.18;100192.53;4479068;32;32847;-74
2023/08/11 09:51:22;;;;;;;3.87;2.00;;;;;;;26.38;39.36;100194.53;4477964;32;34039;-73
2023/08/11 09:53:50;;;;;;;6.45;2.55;;;;;;;27.09;38.96;100191.28;4479846;32;34340;-74
2023/08/11 09:56:21;;;;;;;3.47;1.60;;;;;;;26.64;38.53;100196.53;4480479;31;33676;-74
2023/08/11 09:58:50;;;;;;;3.85;1.83;;;;;;;26.89;38.26;100194.03;4474286;32;33893;-74
2023/08/11 10:01:18;;;;;;;3.58;2.10;;;;;;;26.88;37.40;100193.19;4473392;32;33934;-75
2023/08/11 10:03:48;;;;;;;4.60;2.60;;;;;;;27.07;37.28;100188.75;4468771;32;33531;-75
2023/08/11 10:06:20;;;;;;;4.97;2.50;;;;;;;26.85;38.35;100199.09;4476926;32;33840;-73
2023/08/11 10:08:49;;;;;;;4.65;2.35;;;;;;;26.47;39.23;100190.56;4477741;32;33899;-73
2023/08/11 10:11:18;;;;;;;5.00;2.12;;;;;;;26.38;38.83;100198.12;4475222;32;33870;-73
2023/08/11 10:13:46;;;;;;;3.25;1.85;;;;;;;27.10;37.30;100188.34;4480552;32;33339;-68
2023/08/11 10:16:14;;;;;;;6.28;1.80;;;;;;;27.12;37.29;100191.69;4446931;32;33525;-74
2023/08/11 10:18:43;;;;;;;3.33;1.90;;;;;;;27.63;36.56;100188.28;4432106;32;33611;-72
2023/08/11 10:21:11;;;;;;;6.18;2.42;;;;;;;27.61;37.18;100179.41;4433318;32;33660;-73
2023/08/11 10:23:39;;;;;;;6.22;2.33;;;;;;;26.69;37.29;100181.12;4416972;32;34118;-69
2023/08/11 10:26:07;;;;;;;8.68;2.08;;;;;;;26.67;38.10;100185.97;4415925;32;33732;-72
2023/08/11 10:28:35;;;;;;;5.10;2.35;;;;;;;27.07;37.38;100183.25;4399856;32;33952;-71
2023/08/11 10:31:04;;;;;;;3.90;2.12;;;;;;;26.95;37.28;100184.94;4411180;32;33903;-74
2023/08/11 10:33:33;;;;;;;4.22;1.98;;;;;;;27.26;37.80;100186.25;4371062;32;32682;-73
2023/08/11 10:36:01;;;;;;;2.67;1.50;;;;;;;27.14;37.05;100186.03;4371771;32;33807;-72
2023/08/11 10:38:30;;;;;;;5.03;1.67;;;;;;;27.38;37.17;100181.78;4370596;32;33753;-72
2023/08/11 10:41:06;;;;;;;3.45;2.03;;;;;;;27.74;35.68;100180.44;4360561;32;33756;-72
2023/08/11 10:43:37;;;;;;;4.95;2.03;;;;;;;27.72;36.61;100172.41;4368487;32;33244;-71
2023/08/11 10:46:23;;;;;;;3.58;2.03;;;;;;;28.18;34.83;100168.63;4370626;32;33559;-72
2023/08/11 10:48:57;;;;;;;4.75;2.25;;;;;;;28.41;36.23;100172.75;4415768;32;34010;-71
2023/08/11 10:51:37;;;;;;;2.53;1.50;;;;;;;28.32;34.52;100175.75;4419058;32;33600;-71
2023/08/11 10:54:11;;;;;;;7.18;2.22;;;;;;;27.03;36.14;100168.28;4422518;32;33146;-73
2023/08/11 10:56:42;;;;;;;5.85;2.15;;;;;;;28.25;35.13;100171.34;4444981;32;33544;-73
2023/08/11 10:59:24;;;;;;;3.10;1.85;;;;;;;28.33;36.08;100171.94;4446690;32;32544;-73
2023/08/11 11:01:54;;;;;;;5.50;2.30;;;;;;;28.32;34.37;100174.94;4440990;32;35223;-73
2023/08/11 11:04:23;;;;;;;6.07;2.08;;;;;;;29.04;34.56;100171.94;4450455;32;32862;-73
2023/08/11 11:06:51;;;;;;;5.07;2.30;;;;;;;29.22;32.82;100170.06;4479330;32;33578;-73
2023/08/11 11:09:19;;;;;;;5.53;2.33;;;;;;;29.08;33.00;100176.75;4483016;32;34032;-73
2023/08/11 11:11:51;;;;;;;4.40;2.22;;;;;;;28.39;34.90;100169.37;4481617;32;33587;-73
2023/08/11 11:14:19;;;;;;;2.70;1.45;;;;;;;28.45;33.61;100166.63;4480810;32;33337;-73
2023/08/11 11:16:47;;;;;;;3.70;1.73;;;;;;;28.53;33.07;100169.09;4482863;32;34686;-73
2023/08/11 11:19:15;;;;;;;4.20;1.87;;;;;;;28.36;33.90;100172.56;4473915;32;33656;-73
2023/08/11 11:21:43;;;;;;;4.78;2.25;;;;;;;28.14;34.48;100163.78;4477059;32;33871;-73
2023/08/11 11:24:11;;;;;;;4.97;1.87;;;;;;;28.44;35.07;100167.66;4483317;32;34396;-73
2023/08/11 11:26:40;;;;;;;5.32;2.58;;;;;;;28.47;33.46;100172.72;4483148;32;33817;-73
2023/08/11 11:29:07;;;;;;;9.40;2.62;;;;;;;28.23;33.62;100168.81;4482161;32;33804;-73
2023/08/11 11:31:39;;;;;;;3.78;2.00;;;;;;;28.29;34.33;100161.59;4475333;32;34596;-73
2023/08/11 11:34:07;;;;;;;4.18;1.92;;;;;;;28.38;33.78;100162.16;4478683;32;34251;-73